Strona główna
METAR-TAF:

METAR-TAF

Lotnisko :

Cruzeiro do Sul, Acre, Brazylia

Szerokość geograficzna: 07-38S, Długość geograficzna: 072-40W, wysokość: 170 m

Aktualna obserwacja pogody

Raport powstał 8 godziny i 36 minut temu, godzina 21:00 UTC
Wiatr 5 kt od południowo-południowy wschód
Temperatura 28°C
Wilgotność 79%
Ciśnienie 1011 hPa
Widzialność 10 km lub więcej
Rozproszone chmury na wysokości 3000 ft

METAR: SBCZ 082100Z 15005KT 9999 SCT030 28/24 Q1011

czas: 00:36 (05:36 UTC)


TAF: brakujący

Obserwacja i prognoza pogody dla ponad 4000 lotnisk (raport METAR i TAF).

Dostępne stacje oznaczono żółtymi i czerwonymi punktami na mapie.

Najedź kursorem aby zobaczyć nazwę stacji.

Kliknij aby zobaczyć obserwacje i prognozy pogody.

Aby zmienić mapę: kliknij na zielony przycisk z czarnym krzyżykiem, aby powiększyć; na zielony przycisk z myślnikiem, aby pomniejszyć; na zielone strzałki, aby przejść do map sąsiednich.


METAR-TAF: